createdAt,value
2022-11-09T00:00:56.519Z,98.75
2022-11-09T00:03:23.419Z,99.40
2022-11-09T00:06:00.756Z,96.70
2022-11-09T00:08:28.545Z,95.68
2022-11-09T00:10:55.615Z,101.93
2022-11-09T00:13:23.167Z,104.60
2022-11-09T00:15:50.453Z,96.65
2022-11-09T00:18:17.424Z,97.18
2022-11-09T00:20:47.687Z,97.85
2022-11-09T00:23:18.592Z,98.55
2022-11-09T00:25:45.760Z,95.90
2022-11-09T00:28:12.837Z,101.53
2022-11-09T00:30:40.696Z,90.05
2022-11-09T00:33:08.993Z,95.88
2022-11-09T00:35:38.794Z,97.55
2022-11-09T00:38:05.919Z,103.75
2022-11-09T00:40:32.858Z,98.78
2022-11-09T00:42:59.737Z,99.63
2022-11-09T00:45:26.645Z,97.75
2022-11-09T00:47:53.551Z,96.65
2022-11-09T00:50:20.467Z,95.57
2022-11-09T00:52:48.746Z,93.63
2022-11-09T00:55:15.829Z,99.72
2022-11-09T00:57:42.902Z,96.50
2022-11-09T01:00:10.710Z,96.88
2022-11-09T01:02:37.648Z,100.00
2022-11-09T01:05:05.057Z,103.20
2022-11-09T01:07:32.093Z,93.68
2022-11-09T01:09:58.998Z,94.43
2022-11-09T01:12:25.886Z,96.38
2022-11-09T01:14:52.953Z,95.45
2022-11-09T01:17:19.911Z,94.00
2022-11-09T01:19:47.586Z,94.82
2022-11-09T01:22:15.127Z,90.30
2022-11-09T01:24:42.271Z,92.20
2022-11-09T01:27:09.438Z,86.47
2022-11-09T01:29:36.693Z,88.57
2022-11-09T01:32:04.426Z,92.30
2022-11-09T01:34:32.457Z,90.53
2022-11-09T01:37:02.336Z,92.45
2022-11-09T01:39:30.346Z,93.35
2022-11-09T01:41:57.486Z,96.90
2022-11-09T01:44:27.975Z,83.97
2022-11-09T01:46:59.950Z,87.03
2022-11-09T01:49:48.052Z,89.70
2022-11-09T01:52:36.564Z,87.22
2022-11-09T01:55:24.549Z,87.07
2022-11-09T01:57:56.649Z,87.65
2022-11-09T02:00:23.957Z,87.43
2022-11-09T02:03:00.929Z,87.68
2022-11-09T02:05:31.195Z,84.88
2022-11-09T02:08:02.068Z,85.07
2022-11-09T02:10:34.148Z,84.95
2022-11-09T02:13:02.934Z,88.65
2022-11-09T02:15:39.146Z,88.18
2022-11-09T02:18:11.533Z,89.90
2022-11-09T02:20:51.282Z,89.75
2022-11-09T02:23:19.629Z,87.68
2022-11-09T02:25:53.044Z,88.53
2022-11-09T02:28:20.981Z,93.85
2022-11-09T02:30:53.844Z,84.95
2022-11-09T02:33:21.793Z,86.15
2022-11-09T02:35:49.100Z,81.70
2022-11-09T02:38:16.395Z,84.50
2022-11-09T02:40:48.275Z,92.78
2022-11-09T02:43:18.786Z,92.72
2022-11-09T02:45:46.163Z,88.13
2022-11-09T02:48:13.243Z,86.90
2022-11-09T02:50:40.645Z,88.18
2022-11-09T02:53:07.625Z,87.47
2022-11-09T02:55:37.969Z,86.07
2022-11-09T02:58:06.558Z,84.20
2022-11-09T03:00:35.160Z,94.05
2022-11-09T03:03:03.839Z,86.00
2022-11-09T03:05:30.959Z,86.28
2022-11-09T03:08:02.657Z,84.88
2022-11-09T03:10:32.912Z,84.13
2022-11-09T03:13:00.911Z,80.25
2022-11-09T03:15:27.900Z,88.18
2022-11-09T03:17:54.911Z,82.80
2022-11-09T03:20:22.442Z,82.85
2022-11-09T03:22:49.502Z,90.03
2022-11-09T03:25:17.144Z,86.47
2022-11-09T03:27:44.102Z,87.88
2022-11-09T03:30:12.838Z,83.97
2022-11-09T03:32:40.446Z,85.78
2022-11-09T03:35:08.465Z,84.78
2022-11-09T03:37:35.813Z,84.35
2022-11-09T03:40:04.138Z,84.45
2022-11-09T03:42:31.037Z,87.13
2022-11-09T03:44:58.048Z,85.90
2022-11-09T03:47:24.971Z,86.90
2022-11-09T03:49:51.881Z,84.55
2022-11-09T03:52:18.831Z,84.65
2022-11-09T03:54:45.769Z,82.20
2022-11-09T03:57:12.720Z,87.28
2022-11-09T03:59:39.662Z,86.07
2022-11-09T04:02:06.652Z,89.75
2022-11-09T04:04:33.666Z,88.85
2022-11-09T04:07:00.740Z,88.18
2022-11-09T04:09:27.780Z,91.47
2022-11-09T04:11:54.783Z,89.60
2022-11-09T04:14:21.751Z,87.63
2022-11-09T04:16:48.741Z,84.60
2022-11-09T04:19:15.727Z,86.88
2022-11-09T04:21:42.604Z,85.45
2022-11-09T04:24:12.033Z,89.45
2022-11-09T04:26:39.043Z,81.10
2022-11-09T04:29:05.952Z,86.85
2022-11-09T04:31:32.854Z,86.57
2022-11-09T04:33:59.922Z,94.18
2022-11-09T04:36:26.925Z,86.38
2022-11-09T04:38:53.971Z,91.82
2022-11-09T04:41:21.001Z,89.30
2022-11-09T04:43:48.286Z,86.25
2022-11-09T04:46:15.205Z,87.68
2022-11-09T04:48:42.271Z,81.60
2022-11-09T04:51:13.685Z,87.28
2022-11-09T04:53:41.379Z,90.32
2022-11-09T04:56:08.650Z,84.88
2022-11-09T04:58:35.711Z,94.13
2022-11-09T05:01:10.506Z,80.30
2022-11-09T05:03:37.927Z,89.55
2022-11-09T05:06:25.725Z,75.82
2022-11-09T05:08:53.837Z,83.70
2022-11-09T05:11:21.215Z,77.45
2022-11-09T05:13:48.871Z,78.70
2022-11-09T05:16:17.802Z,73.20
2022-11-09T05:18:44.825Z,74.75
2022-11-09T05:21:12.440Z,72.95
2022-11-09T05:23:58.043Z,72.68
2022-11-09T05:26:39.682Z,67.35
2022-11-09T05:29:12.317Z,66.05
2022-11-09T05:31:40.755Z,70.47
2022-11-09T05:34:08.296Z,65.90
2022-11-09T05:36:35.411Z,62.90
2022-11-09T05:39:02.342Z,67.85
2022-11-09T05:41:29.401Z,57.60
2022-11-09T05:43:56.379Z,55.40
2022-11-09T05:46:23.412Z,60.20
2022-11-09T05:48:50.365Z,57.70
2022-11-09T05:51:17.461Z,58.38
2022-11-09T05:53:46.691Z,58.50
2022-11-09T05:56:15.207Z,55.60
2022-11-09T05:58:42.587Z,61.03
2022-11-09T06:01:12.050Z,55.22
2022-11-09T06:03:39.251Z,57.75
2022-11-09T06:06:09.090Z,56.63
2022-11-09T06:08:37.927Z,55.63
2022-11-09T06:11:07.116Z,50.88
2022-11-09T06:13:34.654Z,53.97
2022-11-09T06:16:03.834Z,52.05
2022-11-09T06:18:32.689Z,51.40
2022-11-09T06:21:01.951Z,53.63
2022-11-09T06:23:30.477Z,48.60
2022-11-09T06:26:10.043Z,48.38
2022-11-09T06:28:41.376Z,48.80
2022-11-09T06:31:12.932Z,46.70
2022-11-09T06:33:40.044Z,48.50
2022-11-09T06:36:07.478Z,43.58
2022-11-09T06:38:34.538Z,43.95
2022-11-09T06:41:01.849Z,42.65
2022-11-09T06:43:29.134Z,41.70
2022-11-09T06:45:56.514Z,45.00
2022-11-09T06:48:24.569Z,42.90
2022-11-09T06:50:51.649Z,40.10
2022-11-09T06:53:19.272Z,41.33
2022-11-09T06:55:50.595Z,38.83
2022-11-09T06:58:19.841Z,40.10
2022-11-09T07:00:47.551Z,36.72
2022-11-09T07:03:16.358Z,34.80
2022-11-09T07:05:43.979Z,32.97
2022-11-09T07:08:11.612Z,33.78
2022-11-09T07:10:39.170Z,33.45
2022-11-09T07:13:06.936Z,30.15
2022-11-09T07:15:34.884Z,30.27
2022-11-09T07:18:03.372Z,31.67
2022-11-09T07:20:30.609Z,25.42
2022-11-09T07:22:57.721Z,27.25
2022-11-09T07:25:25.441Z,26.40
2022-11-09T07:27:52.459Z,24.13
2022-11-09T07:30:19.796Z,24.88
2022-11-09T07:33:08.074Z,26.08
2022-11-09T07:35:33.680Z,23.58
2022-11-09T07:38:02.230Z,21.90
2022-11-09T07:40:30.460Z,22.48
2022-11-09T07:43:01.487Z,22.50
2022-11-09T07:45:29.866Z,21.67
2022-11-09T07:47:59.082Z,20.20
2022-11-09T07:50:26.912Z,17.20
2022-11-09T07:52:59.257Z,20.08
2022-11-09T07:55:27.792Z,20.80
2022-11-09T07:58:04.678Z,17.27
2022-11-09T08:00:33.186Z,16.85
2022-11-09T08:03:00.253Z,16.55
2022-11-09T08:05:27.509Z,15.90
2022-11-09T08:07:59.019Z,15.93
2022-11-09T08:10:27.460Z,16.10
2022-11-09T08:12:55.878Z,17.70
2022-11-09T08:15:23.361Z,12.25
2022-11-09T08:17:50.513Z,13.07
2022-11-09T08:20:17.864Z,12.05
2022-11-09T08:22:46.173Z,12.82
2022-11-09T08:25:14.645Z,12.30
2022-11-09T08:27:41.832Z,12.55
2022-11-09T08:30:14.229Z,11.73
2022-11-09T08:32:42.912Z,10.77
2022-11-09T08:35:11.588Z,10.38
2022-11-09T08:37:38.855Z,12.73
2022-11-09T08:40:07.286Z,13.85
2022-11-09T08:42:34.272Z,13.27
2022-11-09T08:45:01.916Z,11.00
2022-11-09T08:47:29.386Z,11.52
2022-11-09T08:49:56.340Z,10.88
2022-11-09T08:52:23.399Z,10.57
2022-11-09T08:54:50.443Z,10.10
2022-11-09T08:57:20.915Z,8.63
2022-11-09T08:59:47.900Z,8.63
2022-11-09T09:02:15.590Z,8.32
2022-11-09T09:04:43.126Z,7.50
2022-11-09T09:07:11.051Z,8.05
2022-11-09T09:09:38.511Z,7.80
2022-11-09T09:12:07.192Z,7.03
2022-11-09T09:14:34.504Z,11.50
2022-11-09T09:17:01.809Z,7.07
2022-11-09T09:19:28.936Z,7.70
2022-11-09T09:21:56.063Z,8.32
2022-11-09T09:24:23.108Z,7.03
2022-11-09T09:26:50.131Z,5.78
2022-11-09T09:29:17.346Z,6.07
2022-11-09T09:31:44.451Z,6.47
2022-11-09T09:34:12.719Z,7.32
2022-11-09T09:36:44.722Z,7.20
2022-11-09T09:39:14.825Z,7.43
2022-11-09T09:41:50.326Z,6.25
2022-11-09T09:44:50.358Z,5.75
2022-11-09T09:47:25.203Z,5.47
2022-11-09T09:49:59.881Z,7.00
2022-11-09T09:53:04.714Z,8.73
2022-11-09T09:55:43.272Z,8.68
2022-11-09T09:58:19.577Z,6.65
2022-11-09T10:00:48.418Z,7.57
2022-11-09T10:03:20.133Z,6.70
2022-11-09T10:06:01.716Z,6.95
2022-11-09T10:09:11.065Z,6.30
2022-11-09T10:12:07.042Z,8.60
2022-11-09T10:15:00.961Z,8.93
2022-11-09T10:20:27.537Z,6.10
2022-11-09T10:23:03.730Z,6.80
2022-11-09T10:26:02.923Z,6.57
2022-11-09T10:28:42.394Z,7.53
2022-11-09T10:31:19.321Z,7.15
2022-11-09T10:33:52.823Z,6.25
2022-11-09T10:36:29.966Z,9.80
2022-11-09T10:39:00.533Z,6.03
2022-11-09T10:41:49.393Z,8.38
2022-11-09T10:44:34.678Z,7.07
2022-11-09T10:47:20.351Z,6.82
2022-11-09T10:50:18.155Z,7.07
2022-11-09T10:53:23.465Z,7.40
2022-11-09T10:56:20.925Z,6.25
2022-11-09T10:59:47.503Z,10.13
2022-11-09T11:02:45.081Z,6.35
2022-11-09T11:05:32.296Z,7.85
2022-11-09T11:08:41.160Z,8.18
2022-11-09T11:11:36.474Z,7.72
2022-11-09T11:14:33.378Z,6.10
2022-11-09T11:17:35.433Z,5.60
2022-11-09T11:20:31.344Z,8.45
2022-11-09T11:23:25.804Z,11.95
2022-11-09T11:26:23.400Z,8.20
2022-11-09T11:29:48.588Z,6.10
2022-11-09T11:32:34.777Z,7.72
2022-11-09T11:35:32.889Z,8.32
2022-11-09T11:38:33.613Z,6.93
2022-11-09T11:41:38.868Z,7.03
2022-11-09T11:45:18.486Z,6.75
2022-11-09T11:48:13.633Z,7.88
2022-11-09T11:51:11.256Z,8.15
2022-11-09T11:54:31.100Z,5.75
2022-11-09T11:57:25.534Z,7.78
2022-11-09T12:00:15.630Z,9.32
2022-11-09T12:03:17.012Z,8.57
2022-11-09T12:06:11.556Z,9.45
2022-11-09T12:09:14.784Z,7.40
2022-11-09T12:12:24.623Z,8.85
2022-11-09T12:15:28.585Z,9.88
2022-11-09T12:18:34.305Z,11.52
2022-11-09T12:21:44.404Z,10.80
2022-11-09T12:24:57.298Z,8.98
2022-11-09T12:28:06.564Z,9.63
2022-11-09T12:31:35.512Z,9.40
2022-11-09T12:34:31.230Z,11.13
2022-11-09T12:37:35.976Z,10.75
2022-11-09T12:40:31.817Z,10.23
2022-11-09T12:43:26.124Z,8.85
2022-11-09T12:46:14.800Z,10.60
2022-11-09T12:49:04.319Z,8.40
2022-11-09T12:51:52.353Z,8.98
2022-11-09T12:54:44.629Z,8.45
2022-11-09T12:57:31.113Z,11.70
2022-11-09T13:00:35.125Z,11.02
2022-11-09T13:03:27.191Z,10.98
2022-11-09T13:06:17.546Z,10.77
2022-11-09T13:09:15.783Z,14.57
2022-11-09T13:12:18.457Z,15.55
2022-11-09T13:15:36.909Z,12.13
2022-11-09T13:18:46.566Z,15.35
2022-11-09T13:21:34.286Z,11.60
2022-11-09T13:24:32.701Z,12.20
2022-11-09T13:27:48.115Z,10.07
2022-11-09T13:30:39.149Z,13.85
2022-11-09T13:33:29.387Z,14.20
2022-11-09T13:36:17.703Z,15.15
2022-11-09T13:39:33.157Z,11.88
2022-11-09T13:42:28.060Z,15.02
2022-11-09T13:45:36.702Z,14.45
2022-11-09T13:48:41.096Z,13.43
2022-11-09T13:54:30.832Z,14.68
2022-11-09T13:57:16.913Z,13.00
2022-11-09T14:00:05.781Z,13.30
2022-11-09T14:03:17.829Z,15.15
2022-11-09T14:06:03.754Z,13.95
2022-11-09T14:08:49.604Z,15.40
2022-11-09T14:11:47.408Z,16.17
2022-11-09T14:14:41.784Z,17.02
2022-11-09T14:17:50.284Z,14.45
2022-11-09T14:20:54.646Z,16.23
2022-11-09T14:23:40.087Z,18.27
2022-11-09T14:26:26.565Z,16.67
2022-11-09T14:29:22.328Z,17.88
2022-11-09T14:32:30.412Z,20.45
2022-11-09T14:35:33.626Z,17.85
2022-11-09T14:38:23.009Z,17.57
2022-11-09T14:41:21.101Z,17.27
2022-11-09T14:44:07.449Z,17.15
2022-11-09T14:46:55.383Z,17.80
2022-11-09T14:49:41.444Z,15.48
2022-11-09T14:52:29.249Z,18.83
2022-11-09T14:55:17.297Z,18.70
2022-11-09T14:58:03.429Z,17.48
2022-11-09T15:01:07.930Z,18.35
2022-11-09T15:04:15.025Z,19.38
2022-11-09T15:07:04.139Z,18.95
2022-11-09T15:09:59.306Z,19.40
2022-11-09T15:12:53.292Z,21.00
2022-11-09T15:18:33.407Z,23.13
2022-11-09T15:24:28.682Z,21.90
2022-11-09T15:27:35.665Z,27.15
2022-11-09T15:30:30.427Z,25.88
2022-11-09T16:48:35.452Z,26.40
2022-11-09T16:51:21.851Z,28.05
2022-11-09T16:54:08.240Z,27.90
2022-11-09T16:56:55.092Z,26.10
2022-11-09T16:59:42.127Z,25.77
2022-11-09T17:02:27.760Z,28.42
2022-11-09T17:05:14.207Z,26.50
2022-11-09T17:08:00.994Z,25.05
2022-11-09T17:10:47.435Z,29.55
2022-11-09T17:13:32.877Z,30.48
2022-11-09T17:16:20.720Z,32.67
2022-11-09T17:19:06.630Z,34.60
2022-11-09T17:21:52.698Z,32.00
2022-11-09T17:24:38.260Z,30.17
2022-11-09T17:27:24.031Z,32.80
2022-11-09T17:30:10.984Z,31.35
2022-11-09T17:32:57.222Z,32.10
2022-11-09T17:35:45.571Z,29.08
2022-11-09T17:38:32.798Z,29.17
2022-11-09T17:41:20.807Z,28.55
2022-11-09T17:44:06.374Z,32.50
2022-11-09T17:46:52.739Z,24.92
2022-11-09T17:49:38.930Z,27.02
2022-11-09T17:52:24.912Z,29.10
2022-11-09T17:55:10.368Z,32.42
2022-11-09T17:57:56.348Z,28.08
2022-11-09T18:00:45.644Z,31.25
2022-11-09T18:03:36.943Z,29.38
2022-11-09T18:06:24.903Z,29.52
2022-11-09T18:09:39.659Z,29.90
2022-11-09T18:12:17.621Z,26.98
2022-11-09T18:15:03.984Z,25.75
2022-11-09T18:17:49.555Z,30.83
2022-11-09T18:20:39.752Z,28.67
2022-11-09T18:23:25.960Z,30.20
2022-11-09T18:26:12.303Z,28.13
2022-11-09T18:28:58.784Z,30.90
2022-11-09T18:31:44.486Z,31.83
2022-11-09T18:34:30.440Z,27.13
2022-11-09T18:37:16.495Z,25.17
2022-11-09T18:40:02.326Z,27.73
2022-11-09T18:42:48.204Z,25.52
2022-11-09T18:45:35.371Z,24.38
2022-11-09T18:48:24.210Z,31.30
2022-11-09T18:51:11.422Z,30.27
2022-11-09T18:53:57.529Z,27.00
2022-11-09T18:56:43.329Z,24.80
2022-11-09T18:59:28.936Z,29.90
2022-11-09T19:02:14.943Z,28.98
2022-11-09T19:05:00.840Z,28.38
2022-11-09T19:07:46.782Z,26.50
2022-11-09T19:10:35.318Z,31.65
2022-11-09T19:13:21.257Z,34.80
2022-11-09T19:16:11.450Z,32.67
2022-11-09T19:18:58.047Z,31.92
2022-11-09T19:21:48.497Z,33.00
2022-11-09T19:24:34.303Z,20.38
2022-11-09T19:27:20.062Z,22.67
2022-11-09T19:30:09.636Z,20.00
2022-11-09T19:32:55.920Z,16.25
2022-11-09T19:35:42.093Z,17.63
2022-11-09T19:38:27.952Z,18.05
2022-11-09T19:41:13.677Z,14.70
2022-11-09T19:44:02.216Z,17.23
2022-11-09T19:46:48.573Z,14.48
2022-11-09T19:49:34.519Z,16.50
2022-11-09T19:52:20.471Z,16.48
2022-11-09T19:55:06.818Z,15.55
2022-11-09T19:57:55.305Z,16.27
2022-11-09T20:00:41.229Z,15.93
2022-11-09T20:03:27.167Z,19.08
2022-11-09T20:06:13.540Z,17.20
2022-11-09T20:09:04.417Z,17.05
2022-11-09T20:12:08.872Z,17.50
2022-11-09T20:14:54.653Z,18.00
2022-11-09T20:17:40.937Z,18.10
2022-11-09T20:20:26.797Z,21.27
2022-11-09T20:23:14.535Z,17.10
2022-11-09T20:26:06.993Z,19.38
2022-11-09T20:28:54.259Z,17.67
2022-11-09T20:31:40.681Z,18.67
2022-11-09T20:34:26.540Z,19.23
2022-11-09T20:37:11.845Z,18.17
2022-11-09T20:39:57.674Z,17.92
2022-11-09T20:42:44.242Z,17.95
2022-11-09T20:45:29.899Z,18.20
2022-11-09T20:48:38.645Z,15.20
2022-11-09T20:51:22.170Z,17.10
2022-11-09T20:54:08.067Z,16.85
2022-11-09T20:56:53.777Z,15.32
2022-11-09T20:59:39.587Z,15.18
2022-11-09T21:02:25.731Z,18.08
2022-11-09T21:05:11.402Z,17.05
2022-11-09T21:08:00.372Z,14.18
2022-11-09T21:10:46.068Z,15.57
2022-11-09T21:13:31.997Z,25.05
2022-11-09T21:16:19.524Z,18.52
2022-11-09T21:19:07.815Z,18.73
2022-11-09T21:21:53.152Z,16.42
2022-11-09T21:24:57.315Z,14.77
2022-11-09T21:28:01.299Z,16.30
2022-11-09T21:30:47.430Z,18.48
2022-11-09T21:33:33.140Z,16.50
2022-11-09T21:36:18.844Z,14.32
2022-11-09T21:39:04.552Z,12.85
2022-11-09T21:41:50.867Z,11.68
2022-11-09T21:44:36.670Z,13.50
2022-11-09T21:47:23.326Z,14.40
2022-11-09T21:50:12.524Z,15.40
2022-11-09T21:52:58.582Z,15.75
2022-11-09T21:55:44.063Z,13.57
2022-11-09T21:58:29.557Z,15.23
2022-11-09T22:01:18.142Z,15.23
2022-11-09T22:04:03.808Z,19.45
2022-11-09T22:06:49.398Z,18.42
2022-11-09T22:09:57.962Z,19.77
2022-11-09T22:12:58.917Z,13.93
2022-11-09T22:16:03.310Z,14.75
2022-11-09T22:19:07.414Z,16.00
2022-11-09T22:24:38.633Z,14.40
2022-11-09T22:27:24.554Z,13.93
2022-11-09T22:30:10.702Z,14.88
2022-11-09T22:32:58.242Z,14.10
2022-11-09T22:35:43.975Z,13.02
2022-11-09T22:38:31.238Z,12.02
2022-11-09T22:41:17.451Z,11.57
2022-11-09T22:44:02.934Z,12.10
2022-11-09T22:46:49.474Z,13.20
2022-11-09T22:49:37.031Z,13.73
2022-11-09T22:52:22.774Z,12.95
2022-11-09T22:55:08.628Z,12.38
2022-11-09T22:57:58.237Z,12.73
2022-11-09T23:00:43.700Z,16.30
2022-11-09T23:03:29.118Z,13.75
2022-11-09T23:06:17.538Z,12.65
2022-11-09T23:09:02.905Z,14.70
2022-11-09T23:11:48.305Z,14.57
2022-11-09T23:14:52.261Z,12.77
2022-11-09T23:17:56.335Z,14.80
2022-11-09T23:20:42.950Z,14.73
2022-11-09T23:23:28.798Z,15.98
2022-11-09T23:26:14.132Z,15.18
2022-11-09T23:29:00.215Z,16.60
2022-11-09T23:31:45.910Z,15.48
2022-11-09T23:34:31.197Z,12.57
2022-11-09T23:37:16.651Z,14.52
2022-11-09T23:40:01.899Z,15.68
2022-11-09T23:42:47.274Z,17.15
2022-11-09T23:45:37.457Z,16.15
2022-11-09T23:48:23.204Z,14.90
2022-11-09T23:51:09.507Z,14.80
2022-11-09T23:53:55.045Z,14.68
2022-11-09T23:56:40.507Z,13.48
2022-11-09T23:59:26.042Z,14.05
